sensor_id;sensor_type;location;lat;lon;timestamp;P1;durP1;ratioP1;P2;durP2;ratioP2
6434;SDS011;3250;42.694;23.278;2023-03-21T00:00:25;67.03;;;27.27;;
6434;SDS011;3250;42.694;23.278;2023-03-21T00:02:50;59.60;;;27.77;;
6434;SDS011;3250;42.694;23.278;2023-03-21T00:05:16;62.03;;;27.63;;
6434;SDS011;3250;42.694;23.278;2023-03-21T00:07:42;62.60;;;27.27;;
6434;SDS011;3250;42.694;23.278;2023-03-21T00:10:07;50.33;;;23.20;;
6434;SDS011;3250;42.694;23.278;2023-03-21T00:12:33;58.47;;;24.07;;
6434;SDS011;3250;42.694;23.278;2023-03-21T00:15:05;56.13;;;23.77;;
6434;SDS011;3250;42.694;23.278;2023-03-21T00:17:32;54.70;;;23.30;;
6434;SDS011;3250;42.694;23.278;2023-03-21T00:19:58;53.47;;;23.00;;
6434;SDS011;3250;42.694;23.278;2023-03-21T00:22:24;60.80;;;24.07;;
6434;SDS011;3250;42.694;23.278;2023-03-21T00:24:51;60.10;;;25.47;;
6434;SDS011;3250;42.694;23.278;2023-03-21T00:27:17;63.03;;;24.77;;
6434;SDS011;3250;42.694;23.278;2023-03-21T00:29:46;52.03;;;21.23;;
6434;SDS011;3250;42.694;23.278;2023-03-21T00:32:15;45.47;;;18.17;;
6434;SDS011;3250;42.694;23.278;2023-03-21T00:34:42;40.23;;;16.87;;
6434;SDS011;3250;42.694;23.278;2023-03-21T00:37:08;31.60;;;15.30;;
6434;SDS011;3250;42.694;23.278;2023-03-21T00:39:35;23.77;;;12.87;;
6434;SDS011;3250;42.694;23.278;2023-03-21T00:42:01;22.33;;;11.80;;
6434;SDS011;3250;42.694;23.278;2023-03-21T00:44:27;22.47;;;12.07;;
6434;SDS011;3250;42.694;23.278;2023-03-21T00:46:53;26.37;;;13.07;;
6434;SDS011;3250;42.694;23.278;2023-03-21T00:49:18;26.57;;;13.27;;
6434;SDS011;3250;42.694;23.278;2023-03-21T00:51:47;20.60;;;10.37;;
6434;SDS011;3250;42.694;23.278;2023-03-21T00:54:15;21.30;;;10.80;;
6434;SDS011;3250;42.694;23.278;2023-03-21T00:56:41;22.77;;;11.13;;
6434;SDS011;3250;42.694;23.278;2023-03-21T00:59:06;21.05;;;12.07;;
6434;SDS011;3250;42.694;23.278;2023-03-21T01:01:32;22.60;;;13.03;;
6434;SDS011;3250;42.694;23.278;2023-03-21T01:03:59;21.57;;;12.57;;
6434;SDS011;3250;42.694;23.278;2023-03-21T01:06:37;22.17;;;12.13;;
6434;SDS011;3250;42.694;23.278;2023-03-21T01:09:03;22.73;;;11.17;;
6434;SDS011;3250;42.694;23.278;2023-03-21T01:11:31;26.03;;;11.00;;
6434;SDS011;3250;42.694;23.278;2023-03-21T01:13:58;24.87;;;10.43;;
6434;SDS011;3250;42.694;23.278;2023-03-21T01:16:24;19.03;;;10.97;;
6434;SDS011;3250;42.694;23.278;2023-03-21T01:18:49;26.20;;;11.10;;
6434;SDS011;3250;42.694;23.278;2023-03-21T01:21:15;24.00;;;11.33;;
6434;SDS011;3250;42.694;23.278;2023-03-21T01:23:41;19.80;;;10.53;;
6434;SDS011;3250;42.694;23.278;2023-03-21T01:26:08;22.20;;;10.70;;
6434;SDS011;3250;42.694;23.278;2023-03-21T01:28:35;23.13;;;11.37;;
6434;SDS011;3250;42.694;23.278;2023-03-21T01:31:03;20.43;;;10.83;;
6434;SDS011;3250;42.694;23.278;2023-03-21T01:33:29;22.13;;;10.87;;
6434;SDS011;3250;42.694;23.278;2023-03-21T01:35:56;17.10;;;10.33;;
6434;SDS011;3250;42.694;23.278;2023-03-21T01:38:22;17.60;;;11.03;;
6434;SDS011;3250;42.694;23.278;2023-03-21T01:40:48;22.47;;;12.37;;
6434;SDS011;3250;42.694;23.278;2023-03-21T01:48:29;20.07;;;10.37;;
6434;SDS011;3250;42.694;23.278;2023-03-21T01:50:56;20.27;;;9.73;;
6434;SDS011;3250;42.694;23.278;2023-03-21T01:53:24;19.60;;;10.07;;
6434;SDS011;3250;42.694;23.278;2023-03-21T01:55:55;17.37;;;10.33;;
6434;SDS011;3250;42.694;23.278;2023-03-21T01:58:27;22.70;;;10.83;;
6434;SDS011;3250;42.694;23.278;2023-03-21T02:00:54;17.97;;;9.33;;
6434;SDS011;3250;42.694;23.278;2023-03-21T02:03:20;26.03;;;11.07;;
6434;SDS011;3250;42.694;23.278;2023-03-21T02:05:59;20.43;;;10.37;;
6434;SDS011;3250;42.694;23.278;2023-03-21T02:08:30;19.87;;;10.27;;
6434;SDS011;3250;42.694;23.278;2023-03-21T02:10:57;17.83;;;11.57;;
6434;SDS011;3250;42.694;23.278;2023-03-21T02:13:23;21.20;;;9.83;;
6434;SDS011;3250;42.694;23.278;2023-03-21T02:15:58;23.50;;;9.63;;
6434;SDS011;3250;42.694;23.278;2023-03-21T02:19:10;22.20;;;10.63;;
6434;SDS011;3250;42.694;23.278;2023-03-21T02:37:44;16.30;;;8.47;;
6434;SDS011;3250;42.694;23.278;2023-03-21T02:40:15;22.63;;;10.03;;
6434;SDS011;3250;42.694;23.278;2023-03-21T02:45:48;16.77;;;9.13;;
6434;SDS011;3250;42.694;23.278;2023-03-21T02:48:20;16.50;;;9.50;;
6434;SDS011;3250;42.694;23.278;2023-03-21T02:50:50;18.73;;;9.13;;
6434;SDS011;3250;42.694;23.278;2023-03-21T02:53:21;19.07;;;9.63;;
6434;SDS011;3250;42.694;23.278;2023-03-21T02:55:50;23.93;;;10.20;;
6434;SDS011;3250;42.694;23.278;2023-03-21T02:58:18;21.80;;;9.73;;
6434;SDS011;3250;42.694;23.278;2023-03-21T03:00:45;17.57;;;9.90;;
6434;SDS011;3250;42.694;23.278;2023-03-21T03:03:13;23.10;;;11.80;;
6434;SDS011;3250;42.694;23.278;2023-03-21T03:05:43;25.33;;;14.80;;
6434;SDS011;3250;42.694;23.278;2023-03-21T03:08:46;25.90;;;13.93;;
6434;SDS011;3250;42.694;23.278;2023-03-21T03:16:21;24.73;;;14.33;;
6434;SDS011;3250;42.694;23.278;2023-03-21T03:19:04;36.07;;;15.40;;
6434;SDS011;3250;42.694;23.278;2023-03-21T03:24:23;23.03;;;12.30;;
6434;SDS011;3250;42.694;23.278;2023-03-21T03:26:57;25.67;;;12.50;;
6434;SDS011;3250;42.694;23.278;2023-03-21T03:29:26;31.17;;;13.83;;
6434;SDS011;3250;42.694;23.278;2023-03-21T03:31:56;31.00;;;15.03;;
6434;SDS011;3250;42.694;23.278;2023-03-21T03:34:28;34.90;;;14.10;;
6434;SDS011;3250;42.694;23.278;2023-03-21T03:36:58;33.23;;;13.10;;
6434;SDS011;3250;42.694;23.278;2023-03-21T03:39:35;28.80;;;12.95;;
6434;SDS011;3250;42.694;23.278;2023-03-21T03:42:04;26.70;;;14.05;;
6434;SDS011;3250;42.694;23.278;2023-03-21T03:44:33;28.63;;;13.33;;
6434;SDS011;3250;42.694;23.278;2023-03-21T03:47:01;32.83;;;14.80;;
6434;SDS011;3250;42.694;23.278;2023-03-21T03:49:33;30.47;;;13.73;;
6434;SDS011;3250;42.694;23.278;2023-03-21T03:52:21;28.70;;;15.23;;
6434;SDS011;3250;42.694;23.278;2023-03-21T03:54:53;28.60;;;12.70;;
6434;SDS011;3250;42.694;23.278;2023-03-21T03:57:19;34.77;;;15.23;;
6434;SDS011;3250;42.694;23.278;2023-03-21T03:59:46;31.93;;;13.17;;
6434;SDS011;3250;42.694;23.278;2023-03-21T04:02:11;22.93;;;10.97;;
6434;SDS011;3250;42.694;23.278;2023-03-21T04:04:37;29.00;;;11.97;;
6434;SDS011;3250;42.694;23.278;2023-03-21T04:07:03;27.27;;;13.20;;
6434;SDS011;3250;42.694;23.278;2023-03-21T04:09:30;26.07;;;13.27;;
6434;SDS011;3250;42.694;23.278;2023-03-21T04:11:56;25.40;;;12.93;;
6434;SDS011;3250;42.694;23.278;2023-03-21T04:14:22;35.00;;;16.60;;
6434;SDS011;3250;42.694;23.278;2023-03-21T04:16:48;30.00;;;16.53;;
6434;SDS011;3250;42.694;23.278;2023-03-21T04:19:14;27.63;;;13.57;;
6434;SDS011;3250;42.694;23.278;2023-03-21T04:21:40;26.63;;;12.90;;
6434;SDS011;3250;42.694;23.278;2023-03-21T04:24:06;23.27;;;12.40;;
6434;SDS011;3250;42.694;23.278;2023-03-21T04:26:32;25.83;;;11.73;;
6434;SDS011;3250;42.694;23.278;2023-03-21T04:29:00;29.37;;;13.50;;
6434;SDS011;3250;42.694;23.278;2023-03-21T04:31:26;31.87;;;13.53;;
6434;SDS011;3250;42.694;23.278;2023-03-21T04:33:55;34.83;;;14.90;;
6434;SDS011;3250;42.694;23.278;2023-03-21T04:36:21;27.77;;;14.37;;
6434;SDS011;3250;42.694;23.278;2023-03-21T04:39:02;32.73;;;12.00;;
6434;SDS011;3250;42.694;23.278;2023-03-21T04:41:30;24.23;;;12.20;;
6434;SDS011;3250;42.694;23.278;2023-03-21T04:43:56;25.87;;;12.60;;
6434;SDS011;3250;42.694;23.278;2023-03-21T04:46:22;37.43;;;13.50;;
6434;SDS011;3250;42.694;23.278;2023-03-21T04:48:47;43.50;;;22.07;;
6434;SDS011;3250;42.694;23.278;2023-03-21T04:51:14;46.70;;;23.27;;
6434;SDS011;3250;42.694;23.278;2023-03-21T04:53:40;34.17;;;15.57;;
6434;SDS011;3250;42.694;23.278;2023-03-21T04:56:09;38.87;;;17.70;;
6434;SDS011;3250;42.694;23.278;2023-03-21T04:58:35;38.33;;;19.80;;
6434;SDS011;3250;42.694;23.278;2023-03-21T05:01:00;39.73;;;19.30;;
6434;SDS011;3250;42.694;23.278;2023-03-21T05:03:29;37.33;;;16.10;;
6434;SDS011;3250;42.694;23.278;2023-03-21T05:05:58;32.33;;;14.50;;
6434;SDS011;3250;42.694;23.278;2023-03-21T05:08:24;26.90;;;13.67;;
6434;SDS011;3250;42.694;23.278;2023-03-21T05:10:50;25.90;;;13.50;;
6434;SDS011;3250;42.694;23.278;2023-03-21T05:13:15;22.80;;;12.43;;
6434;SDS011;3250;42.694;23.278;2023-03-21T05:15:40;20.13;;;11.80;;
6434;SDS011;3250;42.694;23.278;2023-03-21T05:18:06;27.47;;;12.30;;
6434;SDS011;3250;42.694;23.278;2023-03-21T05:20:38;23.50;;;10.57;;
6434;SDS011;3250;42.694;23.278;2023-03-21T05:23:07;35.67;;;10.27;;
6434;SDS011;3250;42.694;23.278;2023-03-21T05:25:35;19.90;;;11.03;;
6434;SDS011;3250;42.694;23.278;2023-03-21T05:28:02;18.57;;;11.07;;
6434;SDS011;3250;42.694;23.278;2023-03-21T05:30:28;24.90;;;11.37;;
6434;SDS011;3250;42.694;23.278;2023-03-21T05:32:54;30.37;;;11.93;;
6434;SDS011;3250;42.694;23.278;2023-03-21T05:35:19;30.37;;;10.67;;
6434;SDS011;3250;42.694;23.278;2023-03-21T05:37:45;21.77;;;10.57;;
6434;SDS011;3250;42.694;23.278;2023-03-21T05:40:10;27.43;;;10.90;;
6434;SDS011;3250;42.694;23.278;2023-03-21T05:42:36;28.40;;;13.47;;
6434;SDS011;3250;42.694;23.278;2023-03-21T05:45:02;34.20;;;13.37;;
6434;SDS011;3250;42.694;23.278;2023-03-21T05:47:28;32.17;;;13.50;;
6434;SDS011;3250;42.694;23.278;2023-03-21T05:49:53;30.97;;;12.80;;
6434;SDS011;3250;42.694;23.278;2023-03-21T05:52:18;46.70;;;12.63;;
6434;SDS011;3250;42.694;23.278;2023-03-21T05:54:44;51.43;;;13.63;;
6434;SDS011;3250;42.694;23.278;2023-03-21T05:57:09;51.43;;;15.53;;
6434;SDS011;3250;42.694;23.278;2023-03-21T05:59:35;54.97;;;13.43;;
6434;SDS011;3250;42.694;23.278;2023-03-21T06:02:01;34.70;;;12.93;;
6434;SDS011;3250;42.694;23.278;2023-03-21T06:04:26;37.83;;;12.40;;
6434;SDS011;3250;42.694;23.278;2023-03-21T06:06:52;36.87;;;13.60;;
6434;SDS011;3250;42.694;23.278;2023-03-21T06:09:18;30.43;;;12.03;;
6434;SDS011;3250;42.694;23.278;2023-03-21T06:11:47;41.47;;;12.67;;
6434;SDS011;3250;42.694;23.278;2023-03-21T06:14:14;35.90;;;13.10;;
6434;SDS011;3250;42.694;23.278;2023-03-21T06:16:40;28.33;;;13.23;;
6434;SDS011;3250;42.694;23.278;2023-03-21T06:19:06;39.40;;;15.47;;
6434;SDS011;3250;42.694;23.278;2023-03-21T06:21:31;38.90;;;14.53;;
6434;SDS011;3250;42.694;23.278;2023-03-21T06:23:57;35.27;;;13.43;;
6434;SDS011;3250;42.694;23.278;2023-03-21T06:26:22;40.33;;;14.17;;
6434;SDS011;3250;42.694;23.278;2023-03-21T06:28:48;31.10;;;12.07;;
6434;SDS011;3250;42.694;23.278;2023-03-21T06:31:14;27.80;;;12.50;;
6434;SDS011;3250;42.694;23.278;2023-03-21T06:33:40;30.77;;;12.27;;
6434;SDS011;3250;42.694;23.278;2023-03-21T06:36:05;27.03;;;11.80;;
6434;SDS011;3250;42.694;23.278;2023-03-21T06:38:31;37.70;;;15.00;;
6434;SDS011;3250;42.694;23.278;2023-03-21T06:40:56;37.60;;;12.87;;
6434;SDS011;3250;42.694;23.278;2023-03-21T06:43:22;42.67;;;17.00;;
6434;SDS011;3250;42.694;23.278;2023-03-21T06:45:48;39.77;;;16.33;;
6434;SDS011;3250;42.694;23.278;2023-03-21T06:48:13;35.37;;;15.30;;
6434;SDS011;3250;42.694;23.278;2023-03-21T06:50:39;47.10;;;14.70;;
6434;SDS011;3250;42.694;23.278;2023-03-21T06:53:05;32.80;;;14.67;;
6434;SDS011;3250;42.694;23.278;2023-03-21T06:55:30;25.70;;;10.50;;
6434;SDS011;3250;42.694;23.278;2023-03-21T06:57:55;20.03;;;10.27;;
6434;SDS011;3250;42.694;23.278;2023-03-21T07:00:21;20.00;;;10.03;;
6434;SDS011;3250;42.694;23.278;2023-03-21T07:02:47;20.50;;;9.17;;
6434;SDS011;3250;42.694;23.278;2023-03-21T07:05:13;26.07;;;8.97;;
6434;SDS011;3250;42.694;23.278;2023-03-21T07:07:39;22.23;;;9.20;;
6434;SDS011;3250;42.694;23.278;2023-03-21T07:10:05;25.40;;;9.67;;
6434;SDS011;3250;42.694;23.278;2023-03-21T07:12:32;24.45;;;9.23;;
6434;SDS011;3250;42.694;23.278;2023-03-21T07:14:59;24.88;;;11.15;;
6434;SDS011;3250;42.694;23.278;2023-03-21T07:17:29;27.15;;;11.63;;
6434;SDS011;3250;42.694;23.278;2023-03-21T07:19:54;29.60;;;13.43;;
6434;SDS011;3250;42.694;23.278;2023-03-21T07:22:20;25.95;;;12.18;;
6434;SDS011;3250;42.694;23.278;2023-03-21T07:24:45;25.65;;;11.48;;
6434;SDS011;3250;42.694;23.278;2023-03-21T07:27:15;16.42;;;9.50;;
6434;SDS011;3250;42.694;23.278;2023-03-21T07:29:41;16.85;;;9.90;;
6434;SDS011;3250;42.694;23.278;2023-03-21T07:32:08;16.40;;;8.82;;
6434;SDS011;3250;42.694;23.278;2023-03-21T07:34:34;17.85;;;9.43;;
6434;SDS011;3250;42.694;23.278;2023-03-21T07:36:59;14.32;;;8.05;;
6434;SDS011;3250;42.694;23.278;2023-03-21T07:39:25;23.42;;;8.05;;
6434;SDS011;3250;42.694;23.278;2023-03-21T07:41:51;15.80;;;7.35;;
6434;SDS011;3250;42.694;23.278;2023-03-21T07:44:19;14.23;;;8.05;;
6434;SDS011;3250;42.694;23.278;2023-03-21T07:46:45;12.43;;;8.57;;
6434;SDS011;3250;42.694;23.278;2023-03-21T07:49:11;18.77;;;8.18;;
6434;SDS011;3250;42.694;23.278;2023-03-21T07:51:36;20.27;;;8.52;;
6434;SDS011;3250;42.694;23.278;2023-03-21T07:54:02;15.32;;;8.07;;
6434;SDS011;3250;42.694;23.278;2023-03-21T07:56:27;15.18;;;7.10;;
6434;SDS011;3250;42.694;23.278;2023-03-21T07:58:53;16.02;;;7.90;;
6434;SDS011;3250;42.694;23.278;2023-03-21T08:01:18;18.23;;;9.27;;
6434;SDS011;3250;42.694;23.278;2023-03-21T08:03:45;16.65;;;10.25;;
6434;SDS011;3250;42.694;23.278;2023-03-21T08:06:12;20.25;;;8.77;;
6434;SDS011;3250;42.694;23.278;2023-03-21T08:08:37;16.77;;;7.53;;
6434;SDS011;3250;42.694;23.278;2023-03-21T08:11:03;14.25;;;7.22;;
6434;SDS011;3250;42.694;23.278;2023-03-21T08:13:29;18.25;;;9.05;;
6434;SDS011;3250;42.694;23.278;2023-03-21T08:15:55;14.43;;;7.38;;
6434;SDS011;3250;42.694;23.278;2023-03-21T08:18:20;14.20;;;7.85;;
6434;SDS011;3250;42.694;23.278;2023-03-21T08:20:50;13.40;;;8.13;;
6434;SDS011;3250;42.694;23.278;2023-03-21T08:23:16;15.57;;;8.80;;
6434;SDS011;3250;42.694;23.278;2023-03-21T08:25:41;25.45;;;9.45;;
6434;SDS011;3250;42.694;23.278;2023-03-21T08:28:07;16.45;;;8.85;;
6434;SDS011;3250;42.694;23.278;2023-03-21T08:30:32;18.65;;;8.38;;
6434;SDS011;3250;42.694;23.278;2023-03-21T08:32:58;14.00;;;8.00;;
6434;SDS011;3250;42.694;23.278;2023-03-21T08:35:24;18.52;;;7.95;;
6434;SDS011;3250;42.694;23.278;2023-03-21T08:37:50;23.88;;;9.23;;
6434;SDS011;3250;42.694;23.278;2023-03-21T08:40:17;19.00;;;7.72;;
6434;SDS011;3250;42.694;23.278;2023-03-21T08:42:43;17.77;;;8.65;;
6434;SDS011;3250;42.694;23.278;2023-03-21T08:45:11;14.63;;;8.18;;
6434;SDS011;3250;42.694;23.278;2023-03-21T08:47:37;15.63;;;6.82;;
6434;SDS011;3250;42.694;23.278;2023-03-21T08:50:04;16.95;;;7.05;;
6434;SDS011;3250;42.694;23.278;2023-03-21T08:52:32;10.48;;;6.07;;
6434;SDS011;3250;42.694;23.278;2023-03-21T08:54:58;14.65;;;7.18;;
6434;SDS011;3250;42.694;23.278;2023-03-21T08:57:23;10.63;;;6.55;;
6434;SDS011;3250;42.694;23.278;2023-03-21T08:59:49;13.27;;;7.35;;
6434;SDS011;3250;42.694;23.278;2023-03-21T09:02:15;16.77;;;6.50;;
6434;SDS011;3250;42.694;23.278;2023-03-21T09:04:42;16.73;;;6.65;;
6434;SDS011;3250;42.694;23.278;2023-03-21T09:07:08;12.82;;;6.15;;
6434;SDS011;3250;42.694;23.278;2023-03-21T09:09:36;12.93;;;6.63;;
6434;SDS011;3250;42.694;23.278;2023-03-21T09:12:02;12.18;;;6.45;;
6434;SDS011;3250;42.694;23.278;2023-03-21T09:14:28;12.15;;;6.95;;
6434;SDS011;3250;42.694;23.278;2023-03-21T09:16:53;15.30;;;8.20;;
6434;SDS011;3250;42.694;23.278;2023-03-21T09:19:18;14.38;;;8.38;;
6434;SDS011;3250;42.694;23.278;2023-03-21T09:21:44;15.45;;;6.57;;
6434;SDS011;3250;42.694;23.278;2023-03-21T09:24:11;15.35;;;7.40;;
6434;SDS011;3250;42.694;23.278;2023-03-21T09:26:37;13.70;;;6.40;;
6434;SDS011;3250;42.694;23.278;2023-03-21T09:29:03;10.40;;;6.35;;
6434;SDS011;3250;42.694;23.278;2023-03-21T09:31:30;15.27;;;6.45;;
6434;SDS011;3250;42.694;23.278;2023-03-21T09:33:56;12.77;;;6.57;;
6434;SDS011;3250;42.694;23.278;2023-03-21T09:36:22;11.93;;;6.43;;
6434;SDS011;3250;42.694;23.278;2023-03-21T09:38:50;12.95;;;6.88;;
6434;SDS011;3250;42.694;23.278;2023-03-21T09:49:32;12.65;;;5.97;;
6434;SDS011;3250;42.694;23.278;2023-03-21T09:52:04;10.50;;;6.03;;
6434;SDS011;3250;42.694;23.278;2023-03-21T09:54:39;17.65;;;6.63;;
6434;SDS011;3250;42.694;23.278;2023-03-21T09:59:52;13.45;;;5.85;;
6434;SDS011;3250;42.694;23.278;2023-03-21T10:10:26;9.70;;;6.03;;
6434;SDS011;3250;42.694;23.278;2023-03-21T10:12:54;8.73;;;5.90;;
6434;SDS011;3250;42.694;23.278;2023-03-21T10:15:22;15.13;;;6.70;;
6434;SDS011;3250;42.694;23.278;2023-03-21T10:17:59;12.25;;;5.90;;
6434;SDS011;3250;42.694;23.278;2023-03-21T10:20:35;10.32;;;6.60;;
6434;SDS011;3250;42.694;23.278;2023-03-21T10:23:06;11.93;;;6.35;;
6434;SDS011;3250;42.694;23.278;2023-03-21T10:25:40;13.05;;;7.60;;
6434;SDS011;3250;42.694;23.278;2023-03-21T10:28:17;16.10;;;7.30;;
6434;SDS011;3250;42.694;23.278;2023-03-21T10:30:52;12.82;;;6.93;;
6434;SDS011;3250;42.694;23.278;2023-03-21T10:33:24;12.60;;;7.05;;
6434;SDS011;3250;42.694;23.278;2023-03-21T10:35:55;13.68;;;7.28;;
6434;SDS011;3250;42.694;23.278;2023-03-21T10:38:26;14.68;;;7.05;;
6434;SDS011;3250;42.694;23.278;2023-03-21T10:40:52;13.32;;;7.47;;
6434;SDS011;3250;42.694;23.278;2023-03-21T10:45:53;17.70;;;7.05;;
6434;SDS011;3250;42.694;23.278;2023-03-21T10:48:20;15.25;;;7.13;;
6434;SDS011;3250;42.694;23.278;2023-03-21T10:50:46;10.77;;;6.70;;
6434;SDS011;3250;42.694;23.278;2023-03-21T10:53:22;12.82;;;6.82;;
6434;SDS011;3250;42.694;23.278;2023-03-21T10:55:55;16.80;;;7.00;;
6434;SDS011;3250;42.694;23.278;2023-03-21T10:58:27;12.73;;;7.63;;
6434;SDS011;3250;42.694;23.278;2023-03-21T11:00:58;12.52;;;6.85;;
6434;SDS011;3250;42.694;23.278;2023-03-21T11:03:30;10.32;;;6.82;;
6434;SDS011;3250;42.694;23.278;2023-03-21T11:06:50;12.82;;;5.72;;
6434;SDS011;3250;42.694;23.278;2023-03-21T11:08:46;9.05;;;6.03;;
6434;SDS011;3250;42.694;23.278;2023-03-21T11:11:25;7.53;;;4.85;;
6434;SDS011;3250;42.694;23.278;2023-03-21T11:13:58;11.13;;;4.60;;
6434;SDS011;3250;42.694;23.278;2023-03-21T11:16:35;16.23;;;5.60;;
6434;SDS011;3250;42.694;23.278;2023-03-21T11:21:41;9.68;;;4.78;;
6434;SDS011;3250;42.694;23.278;2023-03-21T11:24:11;9.93;;;4.43;;
6434;SDS011;3250;42.694;23.278;2023-03-21T11:26:46;10.50;;;4.93;;
6434;SDS011;3250;42.694;23.278;2023-03-21T11:31:46;9.30;;;5.43;;
6434;SDS011;3250;42.694;23.278;2023-03-21T11:34:22;8.60;;;4.82;;
6434;SDS011;3250;42.694;23.278;2023-03-21T11:36:56;11.13;;;4.88;;
6434;SDS011;3250;42.694;23.278;2023-03-21T11:39:31;9.57;;;4.47;;
6434;SDS011;3250;42.694;23.278;2023-03-21T11:41:58;14.60;;;5.57;;
6434;SDS011;3250;42.694;23.278;2023-03-21T11:44:29;10.38;;;4.70;;
6434;SDS011;3250;42.694;23.278;2023-03-21T11:46:58;10.70;;;4.60;;
6434;SDS011;3250;42.694;23.278;2023-03-21T11:49:26;14.30;;;5.28;;
6434;SDS011;3250;42.694;23.278;2023-03-21T12:00:25;8.57;;;4.68;;
6434;SDS011;3250;42.694;23.278;2023-03-21T12:03:15;8.50;;;4.47;;
6434;SDS011;3250;42.694;23.278;2023-03-21T12:05:55;13.75;;;4.20;;
6434;SDS011;3250;42.694;23.278;2023-03-21T12:08:31;5.88;;;3.90;;
6434;SDS011;3250;42.694;23.278;2023-03-21T12:16:25;5.05;;;3.15;;
6434;SDS011;3250;42.694;23.278;2023-03-21T12:21:59;5.20;;;3.03;;
6434;SDS011;3250;42.694;23.278;2023-03-21T12:24:43;11.60;;;3.75;;
6434;SDS011;3250;42.694;23.278;2023-03-21T12:29:54;7.90;;;4.07;;
6434;SDS011;3250;42.694;23.278;2023-03-21T12:38:27;6.40;;;3.38;;
6434;SDS011;3250;42.694;23.278;2023-03-21T12:43:41;6.50;;;3.30;;
6434;SDS011;3250;42.694;23.278;2023-03-21T12:46:10;7.68;;;3.45;;
6434;SDS011;3250;42.694;23.278;2023-03-21T12:51:12;6.72;;;3.90;;
6434;SDS011;3250;42.694;23.278;2023-03-21T12:56:36;4.63;;;2.97;;
6434;SDS011;3250;42.694;23.278;2023-03-21T12:59:12;11.15;;;3.50;;
6434;SDS011;3250;42.694;23.278;2023-03-21T13:02:05;7.28;;;3.45;;
6434;SDS011;3250;42.694;23.278;2023-03-21T13:07:32;7.25;;;3.78;;
6434;SDS011;3250;42.694;23.278;2023-03-21T13:10:05;6.47;;;3.97;;
6434;SDS011;3250;42.694;23.278;2023-03-21T13:21:10;8.90;;;3.60;;
6434;SDS011;3250;42.694;23.278;2023-03-21T13:23:37;7.32;;;3.58;;
6434;SDS011;3250;42.694;23.278;2023-03-21T13:26:07;6.45;;;3.65;;
6434;SDS011;3250;42.694;23.278;2023-03-21T13:28:35;5.75;;;3.22;;
6434;SDS011;3250;42.694;23.278;2023-03-21T13:33:52;5.82;;;3.88;;
6434;SDS011;3250;42.694;23.278;2023-03-21T13:36:26;4.00;;;2.63;;
6434;SDS011;3250;42.694;23.278;2023-03-21T13:38:57;4.90;;;3.40;;
6434;SDS011;3250;42.694;23.278;2023-03-21T13:41:31;6.90;;;3.72;;
6434;SDS011;3250;42.694;23.278;2023-03-21T13:51:50;12.98;;;3.78;;
6434;SDS011;3250;42.694;23.278;2023-03-21T13:54:18;6.57;;;4.00;;
6434;SDS011;3250;42.694;23.278;2023-03-21T13:56:52;5.05;;;3.63;;
6434;SDS011;3250;42.694;23.278;2023-03-21T13:59:35;8.05;;;3.85;;
6434;SDS011;3250;42.694;23.278;2023-03-21T14:04:45;7.22;;;3.50;;
6434;SDS011;3250;42.694;23.278;2023-03-21T14:09:38;3.80;;;3.28;;
6434;SDS011;3250;42.694;23.278;2023-03-21T14:12:09;4.35;;;3.13;;
6434;SDS011;3250;42.694;23.278;2023-03-21T14:14:45;6.30;;;3.80;;
6434;SDS011;3250;42.694;23.278;2023-03-21T14:17:32;4.65;;;2.88;;
6434;SDS011;3250;42.694;23.278;2023-03-21T14:22:30;4.65;;;3.40;;
6434;SDS011;3250;42.694;23.278;2023-03-21T14:24:59;6.97;;;3.60;;
6434;SDS011;3250;42.694;23.278;2023-03-21T14:27:32;5.70;;;3.35;;
6434;SDS011;3250;42.694;23.278;2023-03-21T14:29:59;3.80;;;2.97;;
6434;SDS011;3250;42.694;23.278;2023-03-21T14:32:26;7.13;;;4.07;;
6434;SDS011;3250;42.694;23.278;2023-03-21T14:34:54;7.30;;;3.88;;
6434;SDS011;3250;42.694;23.278;2023-03-21T14:37:41;10.98;;;4.00;;
6434;SDS011;3250;42.694;23.278;2023-03-21T14:40:19;6.45;;;3.60;;
6434;SDS011;3250;42.694;23.278;2023-03-21T14:42:48;6.95;;;3.58;;
6434;SDS011;3250;42.694;23.278;2023-03-21T14:48:02;7.78;;;3.90;;
6434;SDS011;3250;42.694;23.278;2023-03-21T14:50:47;9.05;;;4.18;;
6434;SDS011;3250;42.694;23.278;2023-03-21T14:53:24;9.47;;;4.03;;
6434;SDS011;3250;42.694;23.278;2023-03-21T14:56:01;7.55;;;3.55;;
6434;SDS011;3250;42.694;23.278;2023-03-21T14:58:43;6.25;;;3.83;;
6434;SDS011;3250;42.694;23.278;2023-03-21T15:01:18;5.57;;;4.03;;
6434;SDS011;3250;42.694;23.278;2023-03-21T15:03:51;6.77;;;3.70;;
6434;SDS011;3250;42.694;23.278;2023-03-21T15:06:17;6.32;;;4.38;;
6434;SDS011;3250;42.694;23.278;2023-03-21T15:08:53;6.53;;;4.25;;
6434;SDS011;3250;42.694;23.278;2023-03-21T15:11:21;7.13;;;4.30;;
6434;SDS011;3250;42.694;23.278;2023-03-21T15:13:54;7.65;;;4.20;;
6434;SDS011;3250;42.694;23.278;2023-03-21T15:16:20;5.72;;;3.50;;
6434;SDS011;3250;42.694;23.278;2023-03-21T15:18:46;5.38;;;4.10;;
6434;SDS011;3250;42.694;23.278;2023-03-21T15:21:15;7.53;;;3.80;;
6434;SDS011;3250;42.694;23.278;2023-03-21T15:23:46;8.48;;;4.05;;
6434;SDS011;3250;42.694;23.278;2023-03-21T15:26:16;7.75;;;4.50;;
6434;SDS011;3250;42.694;23.278;2023-03-21T15:28:47;6.20;;;4.28;;
6434;SDS011;3250;42.694;23.278;2023-03-21T15:31:16;7.40;;;4.60;;
6434;SDS011;3250;42.694;23.278;2023-03-21T15:33:45;4.82;;;4.00;;
6434;SDS011;3250;42.694;23.278;2023-03-21T15:36:16;8.30;;;4.40;;
6434;SDS011;3250;42.694;23.278;2023-03-21T15:38:47;7.55;;;4.22;;
6434;SDS011;3250;42.694;23.278;2023-03-21T15:43:42;6.63;;;4.72;;
6434;SDS011;3250;42.694;23.278;2023-03-21T15:46:15;7.03;;;4.70;;
6434;SDS011;3250;42.694;23.278;2023-03-21T15:48:42;5.55;;;3.88;;
6434;SDS011;3250;42.694;23.278;2023-03-21T15:51:20;7.22;;;4.53;;
6434;SDS011;3250;42.694;23.278;2023-03-21T15:53:49;5.90;;;4.40;;
6434;SDS011;3250;42.694;23.278;2023-03-21T15:56:18;7.78;;;4.60;;
6434;SDS011;3250;42.694;23.278;2023-03-21T15:58:47;5.57;;;4.00;;
6434;SDS011;3250;42.694;23.278;2023-03-21T16:01:19;8.43;;;5.10;;
6434;SDS011;3250;42.694;23.278;2023-03-21T16:09:23;10.20;;;6.43;;
6434;SDS011;3250;42.694;23.278;2023-03-21T16:14:16;11.32;;;7.47;;
6434;SDS011;3250;42.694;23.278;2023-03-21T16:16:42;11.00;;;7.47;;
6434;SDS011;3250;42.694;23.278;2023-03-21T16:19:09;9.00;;;5.85;;
6434;SDS011;3250;42.694;23.278;2023-03-21T16:21:34;10.07;;;6.85;;
6434;SDS011;3250;42.694;23.278;2023-03-21T16:24:02;10.60;;;6.00;;
6434;SDS011;3250;42.694;23.278;2023-03-21T16:26:30;9.30;;;6.57;;
6434;SDS011;3250;42.694;23.278;2023-03-21T16:28:57;10.35;;;5.82;;
6434;SDS011;3250;42.694;23.278;2023-03-21T16:31:24;12.07;;;5.55;;
6434;SDS011;3250;42.694;23.278;2023-03-21T16:33:52;8.65;;;5.47;;
6434;SDS011;3250;42.694;23.278;2023-03-21T16:36:21;6.55;;;4.88;;
6434;SDS011;3250;42.694;23.278;2023-03-21T16:38:49;6.75;;;5.13;;
6434;SDS011;3250;42.694;23.278;2023-03-21T16:41:19;8.03;;;5.53;;
6434;SDS011;3250;42.694;23.278;2023-03-21T16:43:46;23.27;;;14.10;;
6434;SDS011;3250;42.694;23.278;2023-03-21T16:46:15;21.33;;;11.52;;
6434;SDS011;3250;42.694;23.278;2023-03-21T16:48:43;18.57;;;11.40;;
6434;SDS011;3250;42.694;23.278;2023-03-21T16:51:14;24.93;;;13.80;;
6434;SDS011;3250;42.694;23.278;2023-03-21T16:53:45;13.80;;;9.05;;
6434;SDS011;3250;42.694;23.278;2023-03-21T16:56:12;30.73;;;15.73;;
6434;SDS011;3250;42.694;23.278;2023-03-21T16:58:41;61.50;;;28.90;;
6434;SDS011;3250;42.694;23.278;2023-03-21T17:01:10;95.80;;;55.10;;
6434;SDS011;3250;42.694;23.278;2023-03-21T17:03:38;43.30;;;27.63;;
6434;SDS011;3250;42.694;23.278;2023-03-21T17:06:03;25.43;;;18.70;;
6434;SDS011;3250;42.694;23.278;2023-03-21T17:08:29;18.23;;;12.33;;
6434;SDS011;3250;42.694;23.278;2023-03-21T17:10:55;29.23;;;17.87;;